Time,TemperatureF,DewpointF,PressureIn,WindDirection,WindDirectionDegrees,WindSpeedMPH,WindSpeedGustMPH,Humidity,HourlyPrecipIn,Conditions,Clouds,dailyrainin,SoftwareType,DateUTC
2013-09-23 00:22:00,56.0,54.0,29.95,SE,144,0.0,1.0,94,0.00,,,0.33,,2013-09-23 07:22:00,
2013-09-23 00:52:00,55.0,53.0,29.95,SE,131,0.0,3.0,94,0.00,,,0.33,,2013-09-23 07:52:00,
2013-09-23 01:11:00,54.0,53.0,29.96,SE,131,0.0,0.0,95,0.00,,,0.33,,2013-09-23 08:11:00,
2013-09-23 01:22:00,54.0,53.0,29.96,SE,131,0.0,1.0,95,0.00,,,0.33,,2013-09-23 08:22:00,
2013-09-23 01:32:00,54.0,53.0,29.96,SE,131,0.0,1.0,95,0.00,,,0.33,,2013-09-23 08:32:00,
2013-09-23 01:52:00,54.0,53.0,29.96,WNW,296,0.0,0.0,95,0.00,,,0.33,,2013-09-23 08:52:00,
2013-09-23 02:11:00,54.0,53.0,29.96,SSE,153,0.0,1.0,95,0.00,,,0.33,,2013-09-23 09:11:00,
2013-09-23 02:21:00,53.0,52.0,29.96,SSE,153,0.0,0.0,95,0.00,,,0.33,,2013-09-23 09:21:00,
2013-09-23 02:42:00,53.0,52.0,29.96,SSW,198,0.0,1.0,96,0.00,,,0.33,,2013-09-23 09:42:00,
2013-09-23 02:53:00,53.0,52.0,29.96,SSW,198,0.0,1.0,96,0.00,,,0.33,,2013-09-23 09:53:00,
2013-09-23 03:12:00,53.0,52.0,29.95,West,264,0.0,0.0,96,0.00,,,0.33,,2013-09-23 10:12:00,
2013-09-23 03:23:00,53.0,52.0,29.95,West,264,0.0,0.0,96,0.00,,,0.33,,2013-09-23 10:23:00,
2013-09-23 03:33:00,53.0,52.0,29.95,West,264,0.0,0.0,96,0.00,,,0.33,,2013-09-23 10:33:00,
2013-09-23 04:12:00,53.0,52.0,29.96,SSE,167,0.0,0.0,96,0.00,,,0.33,,2013-09-23 11:12:00,
2013-09-23 04:21:00,53.0,52.0,29.96,SSE,167,0.0,0.0,96,0.00,,,0.33,,2013-09-23 11:21:00,
2013-09-23 04:52:00,54.0,53.0,29.97,SSE,167,0.0,0.0,97,0.00,,,0.33,,2013-09-23 11:52:00,
2013-09-23 05:11:00,54.0,53.0,29.96,SSE,167,0.0,0.0,97,0.00,,,0.33,,2013-09-23 12:11:00,
2013-09-23 05:22:00,55.0,54.0,29.96,SSE,167,0.0,0.0,97,0.00,,,0.33,,2013-09-23 12:22:00,
2013-09-23 05:32:00,55.0,54.0,29.96,SSE,167,0.0,0.0,97,0.00,,,0.33,,2013-09-23 12:32:00,
2013-09-23 05:52:00,55.0,54.0,29.97,East,97,0.0,1.0,97,0.00,,,0.33,,2013-09-23 12:52:00,
2013-09-23 06:11:00,55.0,54.0,29.97,East,97,0.0,1.0,97,0.00,,,0.33,,2013-09-23 13:11:00,
2013-09-23 06:21:00,55.0,54.0,29.97,East,97,0.0,0.0,97,0.00,,,0.33,,2013-09-23 13:21:00,
2013-09-23 06:42:00,55.0,54.0,29.97,East,97,0.0,0.0,97,0.00,,,0.33,,2013-09-23 13:42:00,
2013-09-23 06:52:00,55.0,54.0,29.97,East,97,0.0,0.0,97,0.00,,,0.33,,2013-09-23 13:52:00,
2013-09-23 07:11:00,55.0,54.0,29.98,ESE,108,0.0,1.0,97,0.00,,,0.33,,2013-09-23 14:11:00,
2013-09-23 07:21:00,56.0,55.0,29.97,SSE,147,0.0,5.0,97,0.01,,,0.34,,2013-09-23 14:21:00,
2013-09-23 07:32:00,56.0,55.0,29.97,SSE,147,0.0,5.0,97,0.01,,,0.34,,2013-09-23 14:32:00,
2013-09-23 07:52:00,56.0,55.0,29.97,SSE,147,0.0,5.0,97,0.01,,,0.34,,2013-09-23 14:52:00,
2013-09-23 08:11:00,56.0,55.0,29.98,NNE,12,0.0,2.0,97,0.01,,,0.33,,2013-09-23 15:11:00,
2013-09-23 08:21:00,56.0,55.0,29.98,WNW,296,0.0,2.0,97,0.00,,,0.33,,2013-09-23 15:21:00,
2013-09-23 08:54:00,57.0,56.0,29.99,West,259,0.0,4.0,97,0.00,,,0.33,,2013-09-23 15:54:00,
2013-09-23 09:12:00,57.0,56.0,29.99,SW,221,1.0,3.0,96,0.00,,,0.33,,2013-09-23 16:12:00,
2013-09-23 09:23:00,57.0,56.0,29.99,SW,221,1.0,3.0,96,0.00,,,0.33,,2013-09-23 16:23:00,
2013-09-23 09:33:00,57.0,56.0,29.99,SW,221,1.0,3.0,96,0.00,,,0.33,,2013-09-23 16:33:00,
2013-09-23 10:12:00,58.0,56.0,30.02,SW,227,0.0,3.0,94,0.00,,,0.33,,2013-09-23 17:12:00,
2013-09-23 10:24:00,58.0,56.0,30.02,SW,227,0.0,3.0,94,0.00,,,0.33,,2013-09-23 17:24:00,
2013-09-23 10:34:00,58.0,56.0,30.02,SW,227,0.0,3.0,94,0.00,,,0.33,,2013-09-23 17:34:00,
2013-09-23 10:42:00,58.0,56.0,30.02,SW,227,0.0,3.0,94,0.00,,,0.33,,2013-09-23 17:42:00,
2013-09-23 12:12:00,61.0,59.0,30.03,South,171,1.0,6.0,92,0.00,,,0.32,,2013-09-23 19:12:00,
2013-09-23 12:22:00,61.0,59.0,30.03,South,171,1.0,6.0,92,0.00,,,0.32,,2013-09-23 19:22:00,
2013-09-23 12:53:00,61.0,57.0,30.03,SE,143,0.0,6.0,86,0.00,,,0.32,,2013-09-23 19:53:00,
2013-09-23 13:02:00,61.0,57.0,30.03,SE,143,0.0,6.0,86,0.00,,,0.32,,2013-09-23 20:02:00,
2013-09-23 14:54:00,65.0,58.0,30.03,SSW,199,3.0,12.0,78,0.00,,,0.32,,2013-09-23 21:54:00,
2013-09-23 15:03:00,65.0,58.0,30.03,SSW,199,3.0,12.0,78,0.00,,,0.32,,2013-09-23 22:03:00,
2013-09-23 15:23:00,65.0,58.0,30.03,WSW,252,4.0,14.0,77,0.00,,,0.28,,2013-09-23 22:23:00,
2013-09-23 15:33:00,65.0,58.0,30.03,WSW,252,4.0,14.0,77,0.00,,,0.28,,2013-09-23 22:33:00,
2013-09-23 15:54:00,65.0,58.0,30.03,WSW,252,4.0,14.0,77,0.00,,,0.28,,2013-09-23 22:54:00,
2013-09-23 16:42:00,64.0,58.0,30.03,WSW,255,5.0,10.0,80,0.00,,,0.25,,2013-09-23 23:42:00,
2013-09-23 16:54:00,64.0,58.0,30.03,WSW,255,5.0,10.0,80,0.00,,,0.25,,2013-09-23 23:54:00,
2013-09-23 17:01:00,64.0,58.0,30.03,WSW,255,5.0,10.0,80,0.00,,,0.25,,2013-09-24 00:01:00,
2013-09-23 17:11:00,64.0,58.0,30.03,WSW,255,5.0,10.0,80,0.00,,,0.25,,2013-09-24 00:11:00,
2013-09-23 19:12:00,60.0,57.0,30.03,West,271,1.0,3.0,89,0.00,,,0.01,,2013-09-24 02:12:00,
2013-09-23 19:22:00,60.0,57.0,30.03,West,271,1.0,3.0,89,0.00,,,0.01,,2013-09-24 02:22:00,
2013-09-23 19:42:00,60.0,57.0,30.03,West,271,0.0,0.0,90,0.00,,,0.01,,2013-09-24 02:42:00,
2013-09-23 19:52:00,60.0,57.0,30.03,West,271,0.0,0.0,90,0.00,,,0.01,,2013-09-24 02:52:00,
2013-09-23 20:02:00,60.0,57.0,30.03,West,271,0.0,0.0,90,0.00,,,0.01,,2013-09-24 03:02:00,
2013-09-23 20:54:00,59.0,57.0,30.03,West,271,0.0,0.0,92,0.00,,,0.01,,2013-09-24 03:54:00,
2013-09-23 21:04:00,59.0,57.0,30.03,West,271,0.0,0.0,92,0.00,,,0.01,,2013-09-24 04:04:00,
2013-09-23 22:22:00,58.0,56.0,30.02,West,271,0.0,0.0,94,0.00,,,0.01,,2013-09-24 05:22:00,
2013-09-23 22:53:00,57.0,55.0,30.02,West,271,0.0,0.0,94,0.00,,,0.01,,2013-09-24 05:53:00,
2013-09-23 23:12:00,57.0,55.0,30.02,West,271,0.0,0.0,94,0.00,,,0.01,,2013-09-24 06:12:00,
2013-09-23 23:22:00,57.0,56.0,30.02,West,271,0.0,0.0,95,0.00,,,0.01,,2013-09-24 06:22:00,
2013-09-23 23:32:00,57.0,56.0,30.02,West,271,0.0,0.0,95,0.00,,,0.01,,2013-09-24 06:32:00,
2013-09-23 23:42:00,57.0,56.0,30.02,West,271,0.0,0.0,95,0.00,,,0.01,,2013-09-24 06:42:00,
2013-09-23 23:52:00,57.0,56.0,30.02,West,271,0.0,0.0,95,0.00,,,0.01,,2013-09-24 06:52:00,